Time;durP1;ratioP1;P1;durP2;ratioP2;P2;SDS_P1;SDS_P2;PMS_P1;PMS_P2;Temp;Humidity;BMP_temperature;BMP_pressure;BME280_temperature;BME280_humidity;BME280_pressure;Samples;Min_cycle;Max_cycle;Signal;HPM_P1;HPM_P2
2022/07/19 00:00:32;;;;;;;1.88;1.77;;;16.20;99.90;;;;;;5092259;28;20027;-75
2022/07/19 00:02:58;;;;;;;3.33;1.40;;;16.20;99.90;;;;;;5092384;28;20039;-75
2022/07/19 00:05:24;;;;;;;4.00;1.67;;;16.20;99.90;;;;;;5090964;28;20480;-75
2022/07/19 00:07:50;;;;;;;2.53;1.80;;;16.20;99.90;;;;;;5091784;28;20036;-76
2022/07/19 00:10:19;;;;;;;1.73;1.63;;;16.20;99.90;;;;;;5091712;28;20036;-77
2022/07/19 00:12:46;;;;;;;2.60;1.40;;;16.20;99.90;;;;;;5090950;28;20047;-75
2022/07/19 00:15:15;;;;;;;1.67;1.58;;;16.20;99.90;;;;;;5091487;28;20020;-76
2022/07/19 00:17:42;;;;;;;3.83;1.58;;;16.20;99.90;;;;;;5092148;28;20463;-76
2022/07/19 00:20:10;;;;;;;1.95;1.85;;;16.10;99.90;;;;;;5090562;28;20119;-76
2022/07/19 00:22:36;;;;;;;1.25;1.20;;;16.10;99.90;;;;;;5091835;28;20024;-76
2022/07/19 00:25:02;;;;;;;1.70;1.60;;;16.00;99.90;;;;;;5091776;28;20110;-76
2022/07/19 00:27:27;;;;;;;1.90;1.80;;;15.90;99.90;;;;;;5091958;28;20073;-75
2022/07/19 00:29:53;;;;;;;1.92;1.27;;;15.90;99.90;;;;;;5092070;28;20031;-74
2022/07/19 00:32:19;;;;;;;3.05;2.03;;;15.90;99.90;;;;;;5091538;28;20085;-75
2022/07/19 00:34:44;;;;;;;1.55;1.45;;;15.90;99.90;;;;;;5090327;28;20032;-75
2022/07/19 00:37:10;;;;;;;2.65;1.50;;;15.90;99.90;;;;;;5091913;28;20039;-75
2022/07/19 00:39:36;;;;;;;1.80;1.70;;;15.90;99.90;;;;;;5091634;28;20032;-75
2022/07/19 00:42:02;;;;;;;1.80;1.70;;;15.90;99.90;;;;;;5091766;28;20055;-75
2022/07/19 00:44:28;;;;;;;1.52;1.25;;;15.90;99.90;;;;;;5091580;28;20122;-76
2022/07/19 00:46:53;;;;;;;1.63;1.52;;;15.90;99.90;;;;;;5090563;28;20486;-75
2022/07/19 00:49:19;;;;;;;1.92;1.65;;;15.90;99.90;;;;;;5091645;28;20807;-76
2022/07/19 00:51:46;;;;;;;3.70;1.65;;;15.80;99.90;;;;;;5091272;28;20161;-76
2022/07/19 00:54:12;;;;;;;3.40;1.75;;;15.80;99.90;;;;;;5091456;28;20508;-75
2022/07/19 00:56:38;;;;;;;1.63;1.25;;;15.70;99.90;;;;;;5091190;28;20103;-75
2022/07/19 00:59:05;;;;;;;1.85;1.40;;;15.60;99.90;;;;;;5091776;28;20039;-75
2022/07/19 01:01:31;;;;;;;1.90;1.60;;;15.60;99.90;;;;;;5090066;28;20486;-75
2022/07/19 01:03:57;;;;;;;1.58;1.48;;;15.60;99.90;;;;;;5090560;28;20383;-75
2022/07/19 01:06:23;;;;;;;1.73;1.63;;;15.60;99.90;;;;;;5091505;28;20066;-76
2022/07/19 01:08:49;;;;;;;3.63;1.45;;;15.70;99.90;;;;;;5091176;28;20067;-75
2022/07/19 01:11:15;;;;;;;1.75;1.60;;;15.60;99.90;;;;;;5091521;28;20480;-75
2022/07/19 01:13:40;;;;;;;1.63;1.52;;;15.60;99.90;;;;;;5091217;28;20093;-76
2022/07/19 01:16:06;;;;;;;1.33;1.23;;;15.60;99.90;;;;;;5090429;28;20064;-75
2022/07/19 01:18:32;;;;;;;2.00;1.55;;;15.50;99.90;;;;;;5091520;28;20024;-75
2022/07/19 01:21:00;;;;;;;1.77;1.67;;;15.40;99.90;;;;;;5091497;28;20031;-77
2022/07/19 01:23:26;;;;;;;2.55;2.05;;;15.40;99.90;;;;;;5091530;28;20055;-76
2022/07/19 01:25:52;;;;;;;1.65;1.55;;;15.40;99.90;;;;;;5091421;28;20055;-76
2022/07/19 01:28:17;;;;;;;1.95;1.75;;;15.40;99.90;;;;;;5095174;28;20359;-76
2022/07/19 01:30:43;;;;;;;4.22;2.03;;;15.30;99.90;;;;;;5095084;28;20055;-75
2022/07/19 01:33:09;;;;;;;1.80;1.67;;;15.30;99.90;;;;;;5095314;28;20020;-75
2022/07/19 01:35:34;;;;;;;2.05;1.85;;;15.30;99.90;;;;;;5093609;28;20417;-75
2022/07/19 01:38:00;;;;;;;2.38;2.17;;;15.30;99.90;;;;;;5095092;28;20138;-75
2022/07/19 01:40:26;;;;;;;2.75;1.92;;;15.30;99.90;;;;;;5093852;28;20040;-75
2022/07/19 01:42:52;;;;;;;1.98;1.88;;;15.30;99.90;;;;;;5093683;28;20074;-76
2022/07/19 01:45:18;;;;;;;2.38;1.80;;;15.30;99.90;;;;;;5094900;28;20028;-75
2022/07/19 01:47:45;;;;;;;1.75;1.65;;;15.30;99.90;;;;;;5093002;28;20483;-75
2022/07/19 01:50:17;;;;;;;2.70;1.95;;;15.30;99.90;;;;;;5093609;28;20028;-75
2022/07/19 01:52:43;;;;;;;2.85;2.28;;;15.30;99.90;;;;;;5094794;28;20054;-75
2022/07/19 01:55:09;;;;;;;1.67;1.55;;;15.30;99.90;;;;;;5094861;28;20024;-75
2022/07/19 01:57:35;;;;;;;2.10;1.92;;;15.20;99.90;;;;;;5094774;28;20112;-75
2022/07/19 02:00:01;;;;;;;4.38;1.50;;;15.20;99.90;;;;;;5094410;28;20016;-75
2022/07/19 02:02:26;;;;;;;2.50;1.55;;;15.20;99.90;;;;;;5094808;28;20063;-75
2022/07/19 02:04:52;;;;;;;3.92;1.80;;;15.20;99.90;;;;;;5093003;28;20058;-75
2022/07/19 02:07:18;;;;;;;2.65;1.73;;;15.10;99.90;;;;;;5094735;28;20031;-75
2022/07/19 02:09:43;;;;;;;1.48;1.38;;;15.00;99.90;;;;;;5094484;28;20039;-75
2022/07/19 02:12:09;;;;;;;2.17;1.48;;;15.00;99.90;;;;;;5094521;28;20139;-75
2022/07/19 02:14:35;;;;;;;2.30;2.03;;;15.00;99.90;;;;;;5094679;28;20111;-77
2022/07/19 02:17:00;;;;;;;2.00;1.67;;;15.00;99.90;;;;;;5094377;28;20157;-75
2022/07/19 02:19:26;;;;;;;2.00;1.80;;;14.90;99.90;;;;;;5094496;28;20016;-75
2022/07/19 02:21:52;;;;;;;3.28;1.70;;;14.90;99.90;;;;;;5094253;28;20024;-75
2022/07/19 02:24:17;;;;;;;1.55;1.45;;;14.80;99.90;;;;;;5093012;28;20467;-76
2022/07/19 02:26:43;;;;;;;1.55;1.45;;;14.80;99.90;;;;;;5094505;28;20082;-75
2022/07/19 02:29:09;;;;;;;2.10;1.90;;;14.80;99.90;;;;;;5093612;28;20368;-75
2022/07/19 02:31:35;;;;;;;1.60;1.50;;;14.70;99.90;;;;;;5093998;28;20479;-75
2022/07/19 02:34:00;;;;;;;2.60;2.20;;;14.70;99.90;;;;;;5093941;28;20028;-79
2022/07/19 02:36:26;;;;;;;2.08;1.58;;;14.70;99.90;;;;;;5094139;28;20364;-76
2022/07/19 02:38:51;;;;;;;1.92;1.63;;;14.70;99.90;;;;;;5093363;28;20128;-77
2022/07/19 02:41:17;;;;;;;1.67;1.58;;;14.70;99.90;;;;;;5093912;28;20047;-76
2022/07/19 02:43:43;;;;;;;3.95;3.55;;;14.70;99.90;;;;;;5094277;28;20055;-75
2022/07/19 02:46:09;;;;;;;2.70;2.25;;;14.70;99.90;;;;;;5093760;28;20058;-75
2022/07/19 02:48:35;;;;;;;3.95;1.88;;;14.60;99.90;;;;;;5094030;28;20534;-77
2022/07/19 02:51:01;;;;;;;2.33;2.13;;;14.50;99.90;;;;;;5092335;28;20044;-75
2022/07/19 02:53:26;;;;;;;2.08;1.88;;;14.50;99.90;;;;;;5093587;28;20032;-76
2022/07/19 02:55:52;;;;;;;1.85;1.70;;;14.50;99.90;;;;;;5093863;28;20028;-75
2022/07/19 02:58:18;;;;;;;4.65;1.60;;;14.50;99.90;;;;;;5093473;28;20459;-76
2022/07/19 03:00:44;;;;;;;2.10;1.58;;;14.50;99.90;;;;;;5093366;28;20062;-76
2022/07/19 03:05:55;;;;;;;1.58;1.48;;;14.40;99.90;;;;;;5093443;28;20066;-75
2022/07/19 03:08:21;;;;;;;1.70;1.60;;;14.30;99.90;;;;;;5093341;28;20082;-75
2022/07/19 03:10:46;;;;;;;2.65;2.15;;;14.30;99.90;;;;;;5093451;28;20040;-75
2022/07/19 03:13:12;;;;;;;3.85;2.17;;;14.30;99.90;;;;;;5093290;28;20031;-76
2022/07/19 03:15:38;;;;;;;2.95;2.65;;;14.30;99.90;;;;;;5093365;28;20394;-75
2022/07/19 03:18:04;;;;;;;3.10;2.00;;;14.40;99.90;;;;;;5093144;28;20427;-77
2022/07/19 03:20:30;;;;;;;4.13;2.10;;;14.40;99.90;;;;;;5093291;28;20020;-75
2022/07/19 03:22:55;;;;;;;5.53;2.05;;;14.50;99.90;;;;;;5093319;28;20016;-75
2022/07/19 03:25:21;;;;;;;2.30;2.10;;;14.50;99.90;;;;;;5092878;28;20468;-77
2022/07/19 03:27:48;;;;;;;1.80;1.70;;;14.40;99.90;;;;;;5091889;28;20055;-76
2022/07/19 03:30:14;;;;;;;2.13;1.55;;;14.40;99.90;;;;;;5092790;28;20047;-75
2022/07/19 03:32:40;;;;;;;2.65;1.92;;;14.30;99.90;;;;;;5083294;28;20050;-75
2022/07/19 03:35:06;;;;;;;2.13;1.92;;;14.30;99.90;;;;;;5084653;28;20024;-75
2022/07/19 03:37:32;;;;;;;6.82;2.38;;;14.20;99.90;;;;;;5084910;28;20031;-75
2022/07/19 03:39:58;;;;;;;3.35;1.83;;;14.20;99.90;;;;;;5078228;28;20033;-74
2022/07/19 03:42:23;;;;;;;2.10;1.92;;;14.20;99.90;;;;;;5072915;28;20043;-76
2022/07/19 03:44:50;;;;;;;2.88;1.90;;;14.20;99.90;;;;;;5072044;28;20032;-74
2022/07/19 03:47:16;;;;;;;4.30;2.00;;;14.20;99.90;;;;;;5073411;28;20086;-74
2022/07/19 03:49:41;;;;;;;2.97;2.42;;;14.20;99.90;;;;;;5088976;28;20463;-75
2022/07/19 03:52:07;;;;;;;4.07;1.83;;;14.20;99.90;;;;;;5076677;28;20037;-76
2022/07/19 03:54:33;;;;;;;5.53;2.20;;;14.20;99.90;;;;;;5083320;28;20036;-73
2022/07/19 03:56:58;;;;;;;3.65;2.35;;;14.30;99.90;;;;;;5077912;28;20031;-77
2022/07/19 03:59:24;;;;;;;2.80;2.00;;;14.30;99.90;;;;;;5082450;28;20051;-74
2022/07/19 04:01:50;;;;;;;2.70;1.95;;;14.30;99.90;;;;;;5089649;28;20458;-76
2022/07/19 04:04:16;;;;;;;3.17;2.05;;;14.30;99.90;;;;;;5095156;27;20024;-74
2022/07/19 04:06:42;;;;;;;2.33;2.08;;;14.40;99.90;;;;;;5075649;28;20058;-74
2022/07/19 04:09:08;;;;;;;6.68;2.10;;;14.40;99.90;;;;;;5076427;28;20127;-77
2022/07/19 04:11:34;;;;;;;5.20;2.15;;;14.40;99.90;;;;;;5086659;28;20089;-74
2022/07/19 04:13:59;;;;;;;3.60;2.60;;;14.40;99.90;;;;;;5086308;28;20020;-74
2022/07/19 04:16:25;;;;;;;3.13;2.22;;;14.50;99.90;;;;;;5082816;28;20046;-74
2022/07/19 04:18:50;;;;;;;1.95;1.75;;;14.50;99.90;;;;;;5080371;28;20096;-75
2022/07/19 04:21:16;;;;;;;3.08;2.45;;;14.50;99.90;;;;;;5080415;28;20394;-74
2022/07/19 04:23:42;;;;;;;3.17;2.03;;;14.50;99.90;;;;;;5097013;28;20036;-74
2022/07/19 04:26:07;;;;;;;4.22;2.50;;;14.60;99.90;;;;;;5078482;28;20024;-75
2022/07/19 04:28:33;;;;;;;3.67;2.67;;;14.70;99.90;;;;;;5082273;28;20081;-74
2022/07/19 04:30:59;;;;;;;7.13;2.47;;;14.70;99.90;;;;;;5083643;28;20036;-75
2022/07/19 04:33:24;;;;;;;2.30;2.10;;;14.80;99.90;;;;;;5091544;28;20384;-75
2022/07/19 04:35:51;;;;;;;6.82;2.38;;;14.80;99.90;;;;;;5079485;28;20531;-78
2022/07/19 04:38:17;;;;;;;2.75;2.13;;;14.90;99.90;;;;;;5087356;28;20012;-74
2022/07/19 04:40:43;;;;;;;2.72;2.10;;;15.00;99.90;;;;;;5081079;28;20472;-74
2022/07/19 04:43:08;;;;;;;2.55;2.33;;;15.00;99.90;;;;;;5080056;28;20456;-76
2022/07/19 04:45:34;;;;;;;2.42;1.88;;;15.10;99.90;;;;;;5088380;28;20504;-77
2022/07/19 04:48:00;;;;;;;1.48;1.17;;;15.20;99.90;;;;;;5080403;28;20480;-78
2022/07/19 04:50:25;;;;;;;4.15;1.75;;;15.40;99.90;;;;;;5079776;28;20043;-76
2022/07/19 04:52:51;;;;;;;4.03;2.15;;;15.90;99.90;;;;;;5073923;28;20774;-81
2022/07/19 04:55:17;;;;;;;3.92;1.98;;;16.30;99.90;;;;;;5075168;28;20020;-82
2022/07/19 04:57:43;;;;;;;2.78;2.00;;;16.90;99.90;;;;;;5070779;28;20082;-79
2022/07/19 05:00:10;;;;;;;5.10;1.98;;;17.20;99.90;;;;;;5081199;28;20024;-81
2022/07/19 05:02:36;;;;;;;2.60;1.88;;;17.50;99.90;;;;;;5074827;28;20021;-81
2022/07/19 05:05:04;;;;;;;9.10;1.85;;;17.80;99.90;;;;;;5081636;28;20052;-82
2022/07/19 05:07:30;;;;;;;2.28;1.52;;;18.30;99.90;;;;;;5083894;28;20051;-81
2022/07/19 05:09:56;;;;;;;3.47;2.55;;;;;;;;;;5073054;28;20071;-82
2022/07/19 05:12:22;;;;;;;5.03;3.00;;;18.70;99.90;;;;;;5087477;28;20036;-83
2022/07/19 05:14:47;;;;;;;7.45;2.60;;;18.70;99.90;;;;;;5080490;28;20475;-82
2022/07/19 05:17:14;;;;;;;4.60;2.15;;;18.80;99.90;;;;;;5086116;28;20403;-81
2022/07/19 05:19:40;;;;;;;2.75;1.85;;;18.90;99.90;;;;;;5080295;28;20543;-82
2022/07/19 05:22:06;;;;;;;3.17;1.90;;;18.90;99.90;;;;;;5077929;28;20043;-77
2022/07/19 05:24:32;;;;;;;4.65;2.03;;;18.70;99.90;;;;;;5084832;28;20033;-77
2022/07/19 05:26:57;;;;;;;2.42;2.00;;;18.80;99.90;;;;;;5088450;28;20442;-78
2022/07/19 05:29:23;;;;;;;1.80;1.70;;;19.20;99.90;;;;;;5076505;28;20082;-78
2022/07/19 05:31:49;;;;;;;2.25;1.63;;;19.50;99.90;;;;;;5071676;28;20048;-78
2022/07/19 05:34:14;;;;;;;4.30;1.92;;;19.60;99.90;;;;;;5072314;28;20384;-78
2022/07/19 05:36:41;;;;;;;2.40;1.85;;;19.60;99.90;;;;;;5079305;28;20102;-79
2022/07/19 05:39:06;;;;;;;3.13;1.77;;;19.40;99.90;;;;;;5083545;28;20035;-79
2022/07/19 05:41:32;;;;;;;2.78;1.92;;;19.30;99.90;;;;;;5083911;28;20033;-79
2022/07/19 05:43:58;;;;;;;4.32;1.90;;;19.40;99.90;;;;;;5075051;28;20372;-80
2022/07/19 05:46:24;;;;;;;2.08;1.90;;;19.50;99.90;;;;;;5082612;28;20058;-78
2022/07/19 05:48:50;;;;;;;2.38;1.80;;;19.50;99.90;;;;;;5082707;28;20035;-78
2022/07/19 05:51:15;;;;;;;3.28;1.80;;;19.70;99.90;;;;;;5089848;28;20046;-79
2022/07/19 05:53:41;;;;;;;3.67;1.45;;;19.80;99.50;;;;;;5091984;28;20360;-82
2022/07/19 05:56:07;;;;;;;2.60;1.65;;;19.90;99.90;;;;;;5090499;28;20056;-82
2022/07/19 05:58:33;;;;;;;6.03;1.90;;;20.10;99.30;;;;;;5090358;28;20043;-81
2022/07/19 06:01:17;;;;;;;2.28;1.55;;;20.40;99.90;;;;;;5081181;28;20479;-81
2022/07/19 06:03:47;;;;;;;3.45;2.05;;;20.40;98.70;;;;;;5071878;28;20105;-80
2022/07/19 06:06:13;;;;;;;2.70;1.73;;;20.70;98.70;;;;;;5088674;28;20127;-81
2022/07/19 06:08:40;;;;;;;2.47;1.50;;;20.90;98.00;;;;;;5076848;28;20012;-81
2022/07/19 06:11:05;;;;;;;4.57;1.88;;;21.20;97.20;;;;;;5079884;28;20040;-84
2022/07/19 06:13:31;;;;;;;1.60;1.50;;;21.40;97.20;;;;;;5073083;28;20024;-82
2022/07/19 06:15:57;;;;;;;3.15;1.70;;;21.40;96.40;;;;;;5082417;28;20395;-78
2022/07/19 06:18:23;;;;;;;1.80;1.70;;;21.60;96.20;;;;;;5085986;28;20096;-84
2022/07/19 06:20:48;;;;;;;2.05;1.60;;;21.80;96.10;;;;;;5082066;28;20044;-85
2022/07/19 06:23:14;;;;;;;1.23;1.13;;;21.80;96.00;;;;;;5085843;28;20417;-82
2022/07/19 06:25:40;;;;;;;3.38;1.58;;;22.00;95.70;;;;;;5096064;28;20020;-85
2022/07/19 06:28:05;;;;;;;6.30;1.60;;;22.20;95.90;;;;;;5087306;28;20024;-86
2022/07/19 06:30:31;;;;;;;2.58;1.60;;;22.40;95.20;;;;;;5076012;28;20040;-88
2022/07/19 06:32:57;;;;;;;2.30;1.40;;;22.60;94.80;;;;;;5091204;28;20020;-80
2022/07/19 06:35:22;;;;;;;3.22;2.13;;;22.60;94.80;;;;;;5084761;28;20387;-88
2022/07/19 06:37:48;;;;;;;1.83;1.60;;;22.70;94.60;;;;;;5085483;28;20024;-85
2022/07/19 06:40:14;;;;;;;2.40;1.42;;;22.80;94.20;;;;;;5094666;28;20212;-86
2022/07/19 06:42:39;;;;;;;4.22;1.35;;;22.90;93.80;;;;;;5086139;28;20024;-84
2022/07/19 06:45:06;;;;;;;2.00;1.60;;;23.00;93.50;;;;;;5080887;28;20047;-85
2022/07/19 06:47:34;;;;;;;1.63;1.40;;;23.10;93.60;;;;;;5093905;28;20111;-85
2022/07/19 06:50:00;;;;;;;2.35;1.83;;;23.10;93.00;;;;;;5089773;28;20032;-85
2022/07/19 06:52:26;;;;;;;2.97;1.80;;;23.20;93.10;;;;;;5085121;28;20032;-86
2022/07/19 06:54:52;;;;;;;1.58;1.23;;;23.30;92.50;;;;;;5098574;28;20027;-85
2022/07/19 06:57:17;;;;;;;1.92;1.50;;;23.30;91.50;;;;;;5115667;28;20482;-86
2022/07/19 06:59:43;;;;;;;1.70;1.33;;;23.30;91.60;;;;;;5114364;28;20514;-86
2022/07/19 07:02:09;;;;;;;2.65;1.33;;;23.40;91.10;;;;;;5104679;28;20043;-86
2022/07/19 07:04:45;;;;;;;4.57;1.60;;;23.60;90.30;;;;;;5099343;28;20130;-84
2022/07/19 07:07:11;;;;;;;1.58;1.48;;;23.80;90.60;;;;;;5116211;23;20076;-84
2022/07/19 07:09:39;;;;;;;2.15;1.20;;;;;;;;;;5098521;28;20039;-84
2022/07/19 07:12:29;;;;;;;3.25;1.42;;;24.00;88.20;;;;;;5079457;28;20060;-84
2022/07/19 07:14:55;;;;;;;2.35;1.35;;;24.10;88.30;;;;;;5089389;28;20044;-85
2022/07/19 07:17:38;;;;;;;2.10;1.63;;;24.30;88.20;;;;;;5098790;28;20036;-85
2022/07/19 07:20:44;;;;;;;1.58;1.30;;;24.50;86.80;;;;;;5090628;28;20043;-86
2022/07/19 07:23:14;;;;;;;;;;;24.60;86.60;;;;;;5092579;28;20033;-84
2022/07/19 07:25:42;;;;;;;2.20;1.27;;;24.80;85.60;;;;;;5103993;28;19916;-85
2022/07/19 07:28:11;;;;;;;2.28;1.40;;;25.00;86.00;;;;;;5113016;23;20120;-84
2022/07/19 07:30:46;;;;;;;2.78;1.80;;;25.30;86.60;;;;;;5091469;28;20551;-86
2022/07/19 07:33:13;;;;;;;1.25;1.15;;;25.60;87.20;;;;;;5094494;28;20051;-86
2022/07/19 07:35:39;;;;;;;3.95;1.73;;;25.90;87.40;;;;;;5091954;28;20031;-84
2022/07/19 07:38:04;;;;;;;4.15;1.50;;;26.00;84.70;;;;;;5083793;28;20064;-85
2022/07/19 07:40:32;;;;;;;1.40;1.30;;;26.20;83.80;;;;;;5103401;28;20046;-89
2022/07/19 07:43:06;;;;;;;3.50;1.63;;;26.30;81.80;;;;;;5091551;28;20024;-86
2022/07/19 07:45:32;;;;;;;1.30;1.20;;;26.50;81.90;;;;;;5096052;28;20038;-87
2022/07/19 07:47:58;;;;;;;1.20;1.10;;;26.60;81.60;;;;;;5074510;28;20440;-90
2022/07/19 07:50:24;;;;;;;0.98;0.98;;;26.80;80.20;;;;;;5075548;28;20522;-90
2022/07/19 07:52:50;;;;;;;2.25;1.15;;;26.90;80.90;;;;;;5074819;28;20044;-86
2022/07/19 07:55:16;;;;;;;4.90;1.30;;;27.00;80.60;;;;;;5078345;28;20115;-88
2022/07/19 07:57:42;;;;;;;3.85;1.08;;;27.20;78.40;;;;;;5093768;28;20032;-89
2022/07/19 08:00:11;;;;;;;1.92;1.35;;;27.30;77.40;;;;;;5065941;28;20046;-88
2022/07/19 08:02:45;;;;;;;2.92;1.02;;;27.40;79.30;;;;;;5093158;28;20039;-85
2022/07/19 08:05:11;;;;;;;0.87;0.87;;;27.50;80.10;;;;;;5107664;28;20043;-85
2022/07/19 08:07:41;;;;;;;7.40;1.35;;;27.70;79.00;;;;;;5104147;28;20272;-85
2022/07/19 08:10:09;;;;;;;6.47;1.33;;;27.80;79.00;;;;;;5092427;28;20023;-86
2022/07/19 08:12:35;;;;;;;1.23;0.90;;;27.90;76.10;;;;;;5085180;28;20032;-91
2022/07/19 08:15:00;;;;;;;1.75;0.77;;;28.00;73.10;;;;;;5095925;28;20032;-91
2022/07/19 08:17:26;;;;;;;3.47;1.73;;;28.10;71.90;;;;;;5075952;28;20020;-86
2022/07/19 08:19:52;;;;;;;1.88;0.90;;;28.20;70.00;;;;;;5096870;28;20034;-91
2022/07/19 08:22:20;;;;;;;2.25;1.13;;;28.30;72.80;;;;;;5091932;28;20019;-90
2022/07/19 08:24:46;;;;;;;2.40;1.92;;;28.30;67.90;;;;;;5074665;28;20123;-93
2022/07/19 08:27:12;;;;;;;3.88;2.22;;;28.30;69.00;;;;;;5076930;28;20087;-88
2022/07/19 08:29:38;;;;;;;4.10;1.13;;;28.40;66.20;;;;;;5090073;28;20054;-93
2022/07/19 08:32:04;;;;;;;2.83;1.10;;;28.40;63.80;;;;;;5078541;28;20043;-93
2022/07/19 08:34:29;;;;;;;1.13;1.00;;;28.40;65.00;;;;;;5081123;28;20037;-89
2022/07/19 08:36:55;;;;;;;1.05;0.93;;;28.60;66.00;;;;;;5075582;28;20502;-86
2022/07/19 08:39:21;;;;;;;2.40;1.25;;;28.60;65.20;;;;;;5066981;28;20036;-82
2022/07/19 08:41:46;;;;;;;4.22;1.00;;;28.60;65.20;;;;;;5084319;28;20033;-84
2022/07/19 08:44:13;;;;;;;1.27;0.90;;;28.90;65.50;;;;;;5078939;28;20025;-82
2022/07/19 08:46:43;;;;;;;1.60;0.73;;;28.80;62.00;;;;;;5080328;28;20038;-84
2022/07/19 08:49:10;;;;;;;3.95;1.83;;;28.80;60.50;;;;;;5079832;28;20593;-83
2022/07/19 08:51:36;;;;;;;0.70;0.70;;;28.90;60.10;;;;;;5085539;28;20091;-85
2022/07/19 08:54:07;;;;;;;2.25;1.50;;;28.90;59.20;;;;;;5099322;28;20039;-85
2022/07/19 08:59:17;;;;;;;7.28;3.38;;;29.00;56.50;;;;;;5082144;28;20048;-86
2022/07/19 09:01:43;;;;;;;1.77;1.17;;;29.10;58.90;;;;;;5090299;28;20035;-85
2022/07/19 09:04:15;;;;;;;1.20;0.38;;;29.20;58.50;;;;;;5080417;28;20028;-86
2022/07/19 09:06:52;;;;;;;1.60;0.60;;;29.30;58.40;;;;;;5068594;28;20032;-84
2022/07/19 09:09:29;;;;;;;3.13;0.60;;;29.40;57.10;;;;;;5062048;28;20043;-86
2022/07/19 09:11:57;;;;;;;0.55;0.55;;;29.40;57.40;;;;;;5072283;28;20040;-83
2022/07/19 09:14:33;;;;;;;0.85;0.80;;;29.60;56.80;;;;;;5088750;28;20024;-86
2022/07/19 09:17:19;;;;;;;3.58;0.88;;;29.50;55.70;;;;;;5083996;28;20127;-85
2022/07/19 09:19:47;;;;;;;1.02;0.60;;;29.50;55.70;;;;;;5068088;28;20056;-88
2022/07/19 09:22:22;;;;;;;1.52;0.85;;;29.50;57.20;;;;;;5079730;28;20107;-83
2022/07/19 09:24:50;;;;;;;2.10;1.10;;;29.50;57.60;;;;;;5080296;28;20059;-88
2022/07/19 09:27:25;;;;;;;0.60;0.60;;;29.50;58.00;;;;;;5089252;28;20058;-84
2022/07/19 09:30:02;;;;;;;2.97;0.77;;;29.60;57.20;;;;;;5082680;28;20031;-88
2022/07/19 09:32:29;;;;;;;1.08;0.70;;;29.50;55.50;;;;;;5080987;28;20047;-85
2022/07/19 09:35:05;;;;;;;2.67;1.00;;;29.70;58.20;;;;;;5083222;28;20483;-84
2022/07/19 09:37:32;;;;;;;1.70;1.60;;;29.70;57.60;;;;;;5090556;28;20028;-86
2022/07/19 09:40:08;;;;;;;1.30;1.20;;;29.90;58.50;;;;;;5083987;28;20485;-85
2022/07/19 09:42:41;;;;;;;1.77;1.30;;;29.90;57.40;;;;;;5081882;28;20047;-85
2022/07/19 09:45:12;;;;;;;5.30;0.90;;;30.00;58.60;;;;;;5078966;28;20471;-84
2022/07/19 09:47:47;;;;;;;0.90;0.75;;;30.00;58.20;;;;;;5092237;28;20352;-88
2022/07/19 09:50:16;;;;;;;0.77;0.77;;;30.10;57.30;;;;;;5081676;28;20115;-86
2022/07/19 09:52:47;;;;;;;2.45;0.60;;;30.10;57.20;;;;;;5063832;28;20723;-90
2022/07/19 09:55:14;;;;;;;0.98;0.65;;;30.20;56.40;;;;;;5080855;28;20464;-89
2022/07/19 09:57:41;;;;;;;1.42;0.80;;;30.20;55.50;;;;;;5084419;28;20032;-89
2022/07/19 10:00:09;;;;;;;0.52;0.52;;;30.30;57.30;;;;;;5092236;28;20042;-87
2022/07/19 10:02:39;;;;;;;0.77;0.77;;;30.30;54.00;;;;;;5088265;28;20059;-87
2022/07/19 10:05:06;;;;;;;3.05;1.55;;;30.20;55.10;;;;;;5076417;28;20021;-88
2022/07/19 10:07:33;;;;;;;0.90;0.70;;;30.30;54.60;;;;;;5074356;28;20029;-89
2022/07/19 10:10:14;;;;;;;2.50;0.80;;;30.30;56.00;;;;;;5076216;28;20054;-89
2022/07/19 10:12:43;;;;;;;0.82;0.73;;;30.30;55.50;;;;;;5085823;28;20482;-87
2022/07/19 10:15:10;;;;;;;0.95;0.60;;;30.40;55.70;;;;;;5095827;28;20032;-87
2022/07/19 10:18:03;;;;;;;2.90;0.93;;;30.50;55.60;;;;;;5086384;28;20107;-85
2022/07/19 10:20:30;;;;;;;3.60;0.73;;;30.80;57.00;;;;;;5075730;28;20032;-87
2022/07/19 10:23:03;;;;;;;0.60;0.60;;;31.00;55.70;;;;;;5076503;28;20030;-87
2022/07/19 10:25:43;;;;;;;0.88;0.80;;;31.10;56.10;;;;;;5074633;28;20028;-87
2022/07/19 10:28:36;;;;;;;0.65;0.60;;;31.20;54.80;;;;;;5076915;28;20408;-87
2022/07/19 10:31:22;;;;;;;0.70;0.70;;;31.20;55.60;;;;;;5076586;28;20103;-86
2022/07/19 10:34:02;;;;;;;1.45;0.95;;;31.40;55.40;;;;;;5077432;28;20020;-87
2022/07/19 10:36:38;;;;;;;4.15;0.70;;;31.50;53.90;;;;;;5079773;28;20066;-91
2022/07/19 10:39:21;;;;;;;0.70;0.50;;;31.50;54.10;;;;;;5086098;28;20020;-84
2022/07/19 10:42:13;;;;;;;0.88;0.70;;;31.50;54.40;;;;;;5074290;28;20543;-83
2022/07/19 10:44:57;;;;;;;2.88;0.77;;;31.50;54.20;;;;;;5082132;28;20030;-85
2022/07/19 10:47:32;;;;;;;0.57;0.57;;;31.50;54.60;;;;;;5087641;28;20372;-83
2022/07/19 10:50:03;;;;;;;0.80;0.63;;;31.50;53.60;;;;;;5089426;28;20027;-82
2022/07/19 10:52:29;;;;;;;0.95;0.95;;;31.60;55.30;;;;;;5080777;28;20036;-86
2022/07/19 10:55:27;;;;;;;8.52;0.80;;;31.60;54.50;;;;;;5093272;28;20031;-86
2022/07/19 10:57:59;;;;;;;1.30;0.60;;;31.60;54.60;;;;;;5082545;28;20028;-84
2022/07/19 11:00:32;;;;;;;0.60;0.60;;;31.60;54.30;;;;;;5073247;28;20468;-83
2022/07/19 11:03:20;;;;;;;1.02;0.80;;;31.60;53.60;;;;;;5084014;28;20028;-85
2022/07/19 11:05:48;;;;;;;2.95;1.00;;;31.70;53.60;;;;;;5083921;28;20060;-86
2022/07/19 11:08:14;;;;;;;2.78;1.25;;;31.60;52.30;;;;;;5078668;28;20036;-85
2022/07/19 11:10:39;;;;;;;0.50;0.50;;;31.60;52.60;;;;;;5076460;28;20046;-84
2022/07/19 11:13:06;;;;;;;0.60;0.60;;;31.70;52.60;;;;;;5089198;28;20024;-85
2022/07/19 11:15:31;;;;;;;1.08;0.80;;;31.70;52.70;;;;;;5080905;28;20025;-84
2022/07/19 11:18:06;;;;;;;1.10;0.80;;;31.70;54.20;;;;;;5064366;28;20025;-85
2022/07/19 11:20:34;;;;;;;0.43;0.43;;;31.60;53.40;;;;;;5073677;28;20031;-84
2022/07/19 11:23:03;;;;;;;0.75;0.68;;;31.60;53.40;;;;;;5073100;28;20028;-85
2022/07/19 11:25:31;;;;;;;0.88;0.88;;;31.60;54.00;;;;;;5072934;28;20104;-84
2022/07/19 11:27:58;;;;;;;0.63;0.63;;;31.70;53.30;;;;;;5080704;28;20047;-84
2022/07/19 11:30:26;;;;;;;1.60;0.65;;;31.70;52.50;;;;;;5080901;28;20025;-83
2022/07/19 11:32:58;;;;;;;1.23;0.70;;;31.80;53.80;;;;;;5072564;28;20439;-85
2022/07/19 11:35:23;;;;;;;2.10;0.70;;;31.80;52.20;;;;;;5072943;28;20031;-85
2022/07/19 11:37:56;;;;;;;1.20;0.60;;;31.80;52.20;;;;;;5066980;28;20434;-85
2022/07/19 11:40:23;;;;;;;0.80;0.70;;;31.70;51.40;;;;;;5071515;28;20028;-84
2022/07/19 11:42:50;;;;;;;0.35;0.35;;;31.80;51.20;;;;;;5066543;28;20077;-84
2022/07/19 11:45:17;;;;;;;1.30;0.57;;;31.80;51.60;;;;;;5076877;28;20027;-85
2022/07/19 11:47:50;;;;;;;2.55;0.60;;;31.80;51.10;;;;;;5067481;28;20395;-85
2022/07/19 11:50:19;;;;;;;1.88;0.50;;;31.70;50.70;;;;;;5072041;28;20020;-86
2022/07/19 11:52:53;;;;;;;3.90;0.63;;;31.70;51.10;;;;;;5072566;28;20466;-86
2022/07/19 11:55:26;;;;;;;1.55;0.65;;;31.70;51.20;;;;;;5071095;28;20135;-86
2022/07/19 11:57:52;;;;;;;3.38;0.90;;;31.70;51.40;;;;;;5073783;28;20429;-85
2022/07/19 12:00:18;;;;;;;1.80;0.75;;;31.80;51.10;;;;;;5069072;28;20103;-85
2022/07/19 12:03:04;;;;;;;8.15;0.73;;;31.90;50.40;;;;;;5084773;28;20039;-86
2022/07/19 12:05:38;;;;;;;1.05;0.60;;;31.90;50.70;;;;;;5074538;28;20039;-86
2022/07/19 12:08:08;;;;;;;2.43;0.60;;;32.00;50.10;;;;;;5083724;28;20108;-85
2022/07/19 12:10:35;;;;;;;0.73;0.70;;;32.00;51.10;;;;;;5087862;28;20035;-85
2022/07/19 12:13:02;;;;;;;3.90;0.68;;;32.10;50.00;;;;;;5073835;28;20031;-85
2022/07/19 12:15:49;;;;;;;1.95;0.68;;;32.20;50.20;;;;;;5074747;28;20013;-85
2022/07/19 12:18:21;;;;;;;1.77;0.63;;;32.10;49.50;;;;;;5073116;28;20025;-85
2022/07/19 12:21:32;;;;;;;0.50;0.50;;;32.00;50.10;;;;;;5073244;28;20064;-85
2022/07/19 12:24:17;;;;;;;0.80;0.50;;;32.10;50.90;;;;;;5070662;28;20036;-84
2022/07/19 12:26:54;;;;;;;0.70;0.70;;;32.10;49.80;;;;;;5078171;28;20117;-85
2022/07/19 12:29:39;;;;;;;2.58;0.60;;;32.00;50.30;;;;;;5081339;28;21089;-86
2022/07/19 12:32:09;;;;;;;;;;;32.00;50.70;;;;;;5072634;28;20063;-87
2022/07/19 12:34:50;;;;;;;1.33;0.77;;;31.90;49.90;;;;;;5072984;28;19912;-90
2022/07/19 12:37:25;;;;;;;1.63;0.55;;;31.80;51.00;;;;;;5080790;28;20639;-84
2022/07/19 12:40:09;;;;;;;1.40;0.60;;;31.80;50.90;;;;;;5072217;28;20020;-87
2022/07/19 12:42:44;;;;;;;1.07;0.67;;;31.70;50.00;;;;;;5099338;28;20020;-88
2022/07/19 12:45:15;;;;;;;0.40;0.40;;;31.60;49.00;;;;;;5086605;28;20383;-88
2022/07/19 12:47:41;;;;;;;0.25;0.25;;;31.60;49.40;;;;;;5079630;28;20361;-87
2022/07/19 12:50:09;;;;;;;0.50;0.50;;;31.60;49.70;;;;;;5080572;28;20028;-86
2022/07/19 12:52:34;;;;;;;0.95;0.90;;;31.70;51.00;;;;;;5066488;28;20036;-89
2022/07/19 12:55:00;;;;;;;0.98;0.52;;;31.80;48.70;;;;;;5077648;28;20134;-87
2022/07/19 12:57:28;;;;;;;1.65;0.45;;;31.60;49.10;;;;;;5081887;28;20383;-89
2022/07/19 12:59:54;;;;;;;0.52;0.52;;;31.50;48.30;;;;;;5072924;28;20051;-90